Time;durP1;ratioP1;P1;durP2;ratioP2;P2;SDS_P1;SDS_P2;PMS_P1;PMS_P2;Temp;Humidity;BMP_temperature;BMP_pressure;BME280_temperature;BME280_humidity;BME280_pressure;Samples;Min_cycle;Max_cycle;Signal;HPM_P1;HPM_P2
2023/04/22 00:00:07;;;;;;;15.80;10.40;;;;;;;-141.97;86.30;47697.84;5052346;28;20201;-80
2023/04/22 00:02:35;;;;;;;14.67;10.23;;;;;;;-141.97;86.92;47694.00;5035292;28;20165;-79
2023/04/22 00:05:02;;;;;;;15.43;10.20;;;;;;;-141.97;87.04;47697.84;5034604;28;20176;-79
2023/04/22 00:07:27;;;;;;;17.80;10.67;;;;;;;-141.97;87.01;47694.00;5052691;28;20173;-80
2023/04/22 00:09:53;;;;;;;17.30;10.20;;;;;;;-141.97;86.95;47797.78;5051115;28;20177;-80
2023/04/22 00:12:18;;;;;;;14.33;10.00;;;;;;;-141.97;86.34;47686.31;5052811;28;20173;-79
2023/04/22 00:14:44;;;;;;;16.77;10.37;;;;;;;-141.97;86.09;47676.69;5052270;28;20169;-80
2023/04/22 00:17:09;;;;;;;16.30;10.03;;;;;;;-141.97;86.03;47701.69;5052723;28;20682;-80
2023/04/22 00:19:36;;;;;;;16.20;9.83;;;;;;;-141.97;85.44;47703.59;5052315;28;20238;-79
2023/04/22 00:22:02;;;;;;;15.63;9.83;;;;;;;-141.97;85.42;47720.91;5052236;28;20181;-80
2023/04/22 00:24:27;;;;;;;13.43;9.83;;;;;;;-141.97;85.10;47724.75;5052219;28;20618;-79
2023/04/22 00:26:53;;;;;;;15.57;10.33;;;;;;;-141.97;85.32;47707.44;5052438;28;20226;-80
2023/04/22 00:29:18;;;;;;;17.80;10.90;;;;;;;-141.97;85.65;47705.53;5052039;28;20174;-80
2023/04/22 00:31:43;;;;;;;20.47;11.53;;;;;;;-141.97;85.19;47699.75;5051956;28;20169;-80
2023/04/22 00:34:09;;;;;;;18.33;11.07;;;;;;;-141.97;85.13;47694.00;5052055;28;20252;-80
2023/04/22 00:36:34;;;;;;;18.83;11.40;;;;;;;-141.97;85.42;47682.47;5051967;28;20288;-80
2023/04/22 00:39:00;;;;;;;21.27;12.23;;;;;;;-141.97;85.41;47697.84;5050826;28;20201;-80
2023/04/22 00:41:26;;;;;;;23.83;13.20;;;;;;;-141.97;84.77;47680.53;5052131;28;20630;-80
2023/04/22 00:43:52;;;;;;;23.93;13.27;;;;;;;-141.97;84.58;47697.84;5052050;28;20288;-80
2023/04/22 00:46:18;;;;;;;21.33;12.47;;;;;;;-141.97;84.74;47642.09;5034150;28;20722;-80
2023/04/22 00:48:44;;;;;;;21.40;13.23;;;;;;;-141.97;86.38;47836.22;5040527;28;20609;-80
2023/04/22 00:51:10;;;;;;;19.03;11.63;;;;;;;-141.97;85.82;47715.13;5035232;28;20688;-80
2023/04/22 00:53:35;;;;;;;20.60;11.37;;;;;;;-141.97;85.53;47709.38;5051378;28;20177;-80
2023/04/22 00:56:00;;;;;;;17.10;11.13;;;;;;;-141.97;85.17;47718.97;5051585;28;20270;-80
2023/04/22 00:58:28;;;;;;;20.67;11.87;;;;;;;-141.97;85.17;47688.22;5051431;28;20185;-80
2023/04/22 01:00:54;;;;;;;19.60;12.03;;;;;;;-141.97;84.95;47709.38;5051301;28;20192;-80
2023/04/22 01:03:20;;;;;;;18.30;12.27;;;;;;;-141.97;84.95;47634.41;5051441;28;20303;-80
2023/04/22 01:05:48;;;;;;;18.17;11.97;;;;;;;-141.97;85.13;47663.22;5051721;28;20161;-80
2023/04/22 01:08:13;;;;;;;18.40;10.70;;;;;;;-141.97;84.94;47713.22;5051233;28;20158;-80
2023/04/22 01:10:40;;;;;;;19.30;11.10;;;;;;;-141.97;85.50;47699.75;5051158;28;20184;-79
2023/04/22 01:13:06;;;;;;;17.90;10.67;;;;;;;-141.97;86.40;47669.00;5033434;28;20669;-80
2023/04/22 01:15:31;;;;;;;18.87;11.00;;;;;;;-141.97;86.50;47676.69;5033488;28;20169;-80
2023/04/22 01:17:58;;;;;;;21.20;11.37;;;;;;;-141.97;86.26;47665.16;5058445;28;20192;-78
2023/04/22 01:20:27;;;;;;;19.03;12.43;;;;;;;-141.97;85.88;47670.91;5066141;28;20177;-80
2023/04/22 01:22:54;;;;;;;22.60;12.60;;;;;;;-141.97;86.49;47736.28;5034168;28;20181;-79
2023/04/22 01:25:20;;;;;;;21.50;12.53;;;;;;;-141.97;86.51;47707.44;5051744;28;20642;-80
2023/04/22 01:27:45;;;;;;;19.93;12.83;;;;;;;-141.97;86.52;47690.16;5052071;28;20165;-80
2023/04/22 01:30:11;;;;;;;19.57;12.50;;;;;;;-141.97;87.25;47738.19;5051700;28;20268;-80
2023/04/22 01:32:38;;;;;;;19.43;12.07;;;;;;;-141.97;87.70;47676.69;5051631;28;20170;-80
2023/04/22 01:35:04;;;;;;;22.13;12.60;;;;;;;-141.97;88.42;47674.78;5052220;28;20169;-81
2023/04/22 01:37:30;;;;;;;22.07;13.27;;;;;;;-141.97;89.73;47711.28;5064940;28;20220;-80
2023/04/22 01:39:57;;;;;;;19.37;12.53;;;;;;;-141.97;89.36;47663.22;5041812;28;20269;-81
2023/04/22 01:42:23;;;;;;;20.93;12.97;;;;;;;-141.97;89.20;47753.56;5052258;28;20295;-81
2023/04/22 01:44:49;;;;;;;20.43;13.07;;;;;;;-141.97;90.71;47715.13;5051480;28;20169;-80
2023/04/22 01:47:14;;;;;;;24.50;14.17;;;;;;;-141.97;90.74;47695.91;5051543;28;20176;-80
2023/04/22 01:49:40;;;;;;;21.87;13.20;;;;;;;-141.97;91.43;47699.75;5051493;28;20169;-80
2023/04/22 01:52:05;;;;;;;20.87;12.87;;;;;;;-141.97;91.59;47699.75;5051326;28;20162;-80
2023/04/22 01:54:31;;;;;;;23.23;13.17;;;;;;;-141.97;92.03;47688.22;5051346;28;20158;-81
2023/04/22 01:56:57;;;;;;;21.23;13.07;;;;;;;-141.97;92.80;47709.38;5051589;28;20272;-81
2023/04/22 01:59:23;;;;;;;20.40;12.77;;;;;;;-141.97;93.56;47694.00;5051235;28;20285;-80
2023/04/22 02:01:48;;;;;;;21.47;13.03;;;;;;;-141.97;94.29;47694.00;5050813;28;20209;-81
2023/04/22 02:04:14;;;;;;;22.70;12.70;;;;;;;-141.97;94.72;47680.53;5050960;28;20158;-81
2023/04/22 02:06:39;;;;;;;20.27;12.67;;;;;;;-141.97;95.06;47734.34;5051307;28;20174;-80
2023/04/22 02:09:05;;;;;;;21.50;12.87;;;;;;;-141.97;95.51;47711.28;5051183;28;20174;-81
2023/04/22 02:11:30;;;;;;;19.33;12.47;;;;;;;-141.97;96.12;47718.97;5051120;28;20247;-80
2023/04/22 02:13:56;;;;;;;21.17;12.43;;;;;;;-141.97;96.92;47722.81;5049646;28;20264;-80
2023/04/22 02:16:21;;;;;;;21.90;12.63;;;;;;;-141.97;97.45;47724.75;5050745;28;20172;-80
2023/04/22 02:18:47;;;;;;;21.03;13.30;;;;;;;-141.97;98.14;47665.16;5049589;28;20197;-80
2023/04/22 02:21:12;;;;;;;24.27;13.83;;;;;;;-141.97;99.04;47711.28;5049467;28;20195;-80
2023/04/22 02:23:38;;;;;;;22.70;13.73;;;;;;;-141.97;99.94;47676.69;5049881;28;20177;-81
2023/04/22 02:26:04;;;;;;;23.07;14.10;;;;;;;-141.97;100.00;47669.00;5051024;28;20251;-80
2023/04/22 02:28:29;;;;;;;24.07;14.13;;;;;;;-141.97;100.00;47718.97;5050562;28;20618;-81
2023/04/22 02:30:54;;;;;;;28.13;15.40;;;;;;;-141.97;100.00;47670.91;5054579;28;20184;-80
2023/04/22 02:33:20;;;;;;;27.77;15.97;;;;;;;-141.97;100.00;47711.28;5054210;28;20242;-80
2023/04/22 02:35:45;;;;;;;25.87;15.63;;;;;;;-141.97;100.00;47724.75;5053375;28;20168;-81
2023/04/22 02:38:11;;;;;;;29.73;16.57;;;;;;;-141.97;100.00;47801.63;5054089;28;20657;-81
2023/04/22 02:40:36;;;;;;;26.87;15.57;;;;;;;-141.97;100.00;47722.81;5054492;28;20165;-80
2023/04/22 02:43:02;;;;;;;28.63;16.43;;;;;;;-141.97;100.00;47655.53;5054553;28;20191;-80
2023/04/22 02:45:28;;;;;;;28.17;16.50;;;;;;;-141.97;100.00;47851.59;5053626;28;20657;-81
2023/04/22 02:47:53;;;;;;;32.20;17.70;;;;;;;-141.97;100.00;47742.03;5054134;28;20664;-81
2023/04/22 02:50:19;;;;;;;28.33;16.87;;;;;;;-141.97;100.00;47738.19;5053912;28;20208;-81
2023/04/22 02:52:45;;;;;;;30.03;17.60;;;;;;;-141.97;100.00;47795.88;5054233;28;20202;-80
2023/04/22 02:55:10;;;;;;;29.50;18.20;;;;;;;-141.97;100.00;47730.50;5054548;28;20611;-80
2023/04/22 02:57:36;;;;;;;32.20;18.07;;;;;;;-141.97;100.00;47695.91;5053916;28;20527;-80
2023/04/22 03:00:01;;;;;;;28.70;17.80;;;;;;;-141.97;100.00;47667.06;5053344;28;20196;-81
2023/04/22 03:02:27;;;;;;;30.27;18.13;;;;;;;-141.97;100.00;47657.47;5053735;28;20166;-81
2023/04/22 03:04:54;;;;;;;31.27;18.00;;;;;;;-141.97;100.00;47705.53;5054065;28;20157;-80
2023/04/22 03:07:19;;;;;;;30.90;18.00;;;;;;;-141.97;100.00;47720.91;5053450;28;20547;-80
2023/04/22 03:09:45;;;;;;;32.23;18.47;;;;;;;-141.97;100.00;47695.91;5035690;28;20177;-80
2023/04/22 03:12:10;;;;;;;34.17;17.80;;;;;;;-141.97;100.00;47707.44;5053594;28;20170;-80
2023/04/22 03:14:36;;;;;;;32.13;18.07;;;;;;;-141.97;100.00;47678.63;5053691;28;20177;-80
2023/04/22 03:17:01;;;;;;;29.73;17.60;;;;;;;-141.97;100.00;47649.78;5053687;28;20173;-80
2023/04/22 03:19:27;;;;;;;31.00;18.47;;;;;;;-141.97;100.00;47686.31;5052001;28;20248;-79
2023/04/22 03:21:52;;;;;;;34.80;18.93;;;;;;;-141.97;100.00;47688.22;5035447;28;20177;-81
2023/04/22 03:24:18;;;;;;;31.17;18.33;;;;;;;-141.97;100.00;47753.56;5035883;28;20663;-80
2023/04/22 03:26:43;;;;;;;32.27;18.23;;;;;;;-141.97;100.00;47703.59;5053302;28;20173;-81
2023/04/22 03:29:09;;;;;;;33.50;18.27;;;;;;;-141.97;100.00;47734.34;5052085;28;20177;-80
2023/04/22 03:31:34;;;;;;;32.53;18.13;;;;;;;-141.97;100.00;47686.31;5052224;28;20243;-79
2023/04/22 03:34:00;;;;;;;32.33;18.30;;;;;;;-141.97;100.00;47692.06;5035633;28;20252;-82
2023/04/22 03:36:27;;;;;;;32.17;19.43;;;;;;;-141.97;100.00;47705.53;5052517;28;20648;-81
2023/04/22 03:38:52;;;;;;;28.47;17.63;;;;;;;-141.97;100.00;47734.34;5035252;28;20217;-81
2023/04/22 03:41:17;;;;;;;30.93;18.07;;;;;;;-141.97;100.00;47726.66;5053231;28;20169;-81
2023/04/22 03:43:43;;;;;;;34.47;20.93;;;;;;;-141.97;100.00;47676.69;5052854;28;20161;-81
2023/04/22 03:46:08;;;;;;;33.47;18.67;;;;;;;-141.97;100.00;47726.66;5051366;28;20180;-81
2023/04/22 03:48:34;;;;;;;31.20;17.17;;;;;;;-141.97;100.00;47713.22;5053933;28;20157;-81
2023/04/22 03:51:01;;;;;;;29.37;16.63;;;;;;;-141.97;100.00;47749.72;5034728;28;20486;-81
2023/04/22 03:53:28;;;;;;;23.40;13.83;;;;;;;-141.97;100.00;47678.63;5034506;28;20261;-81
2023/04/22 03:55:53;;;;;;;25.33;13.60;;;;;;;-141.97;100.00;47686.31;5033095;28;20173;-81
2023/04/22 03:58:19;;;;;;;22.47;13.73;;;;;;;-141.97;100.00;47678.63;5032699;28;20271;-80
2023/04/22 04:00:44;;;;;;;25.03;13.50;;;;;;;-141.97;100.00;47811.25;5014977;28;20330;-80
2023/04/22 04:03:10;;;;;;;19.23;12.70;;;;;;;-141.97;100.00;47717.06;5032702;28;20166;-82
2023/04/22 04:05:36;;;;;;;20.20;12.03;;;;;;;-141.97;100.00;47795.88;5032618;28;20178;-80
2023/04/22 04:08:02;;;;;;;18.77;12.27;;;;;;;-141.97;100.00;47597.88;5030252;28;20162;-80
2023/04/22 04:10:27;;;;;;;20.17;12.43;;;;;;;-141.97;100.00;47753.56;5047236;28;20162;-80
2023/04/22 04:12:56;;;;;;;20.20;12.90;;;;;;;-141.97;100.00;47670.91;5033210;28;20186;-80
2023/04/22 04:15:23;;;;;;;20.33;12.70;;;;;;;-141.97;100.00;47707.44;5034576;28;20238;-80
2023/04/22 04:17:51;;;;;;;22.53;13.80;;;;;;;-141.97;100.00;47561.38;5061775;28;20237;-82
2023/04/22 04:20:16;;;;;;;23.30;13.40;;;;;;;-141.97;100.00;47717.06;5063655;28;20181;-81
2023/04/22 04:22:44;;;;;;;22.73;13.37;;;;;;;-141.97;100.00;47709.38;5035642;28;20169;-82
2023/04/22 04:25:12;;;;;;;22.13;13.07;;;;;;;-141.97;100.00;47745.88;5034701;28;20180;-81
2023/04/22 04:27:40;;;;;;;33.07;20.50;;;;;;;-141.97;100.00;47584.44;5034875;28;20165;-81
2023/04/22 04:30:08;;;;;;;30.33;18.67;;;;;;;-141.97;100.00;47834.31;5051989;28;20314;-81
2023/04/22 04:32:34;;;;;;;23.50;13.87;;;;;;;-141.97;100.00;47603.66;5052567;28;20239;-81
2023/04/22 04:35:23;;;;;;;27.40;14.70;;;;;;;-141.97;100.00;47695.91;5051806;28;20177;-82
2023/04/22 04:37:49;;;;;;;24.93;16.23;;;;;;;-141.97;100.00;47824.69;5051810;28;20225;-82
2023/04/22 04:40:15;;;;;;;27.30;15.27;;;;;;;-141.97;100.00;47768.94;5051458;28;20192;-81
2023/04/22 04:42:41;;;;;;;26.07;16.13;;;;;;;-141.97;100.00;47822.78;5034433;28;20250;-82
2023/04/22 04:45:08;;;;;;;25.27;14.03;;;;;;;-141.97;100.00;47603.66;5034516;28;20169;-82
2023/04/22 04:47:33;;;;;;;23.13;14.23;;;;;;;-141.97;100.00;47784.34;5050248;28;20208;-81
2023/04/22 04:50:03;;;;;;;25.70;14.37;;;;;;;-141.97;100.00;47603.66;5052118;28;20192;-81
2023/04/22 04:52:28;;;;;;;30.50;18.17;;;;;;;-141.97;100.00;47572.91;5049847;28;20169;-82
2023/04/22 04:54:57;;;;;;;38.40;25.63;;;;;;;-141.97;100.00;47599.81;5034157;28;20248;-81
2023/04/22 04:57:22;;;;;;;38.17;26.43;;;;;;;-141.97;100.00;47572.91;5051729;28;20173;-81
2023/04/22 05:00:07;;;;;;;27.00;16.53;;;;;;;-141.97;100.00;47647.84;5051689;28;20190;-81
2023/04/22 05:02:52;;;;;;;60.47;42.60;;;;;;;-141.97;100.00;47732.44;5052574;28;20173;-81
2023/04/22 05:05:18;;;;;;;80.73;49.73;;;;;;;-141.97;100.00;47588.28;5050758;28;20196;-80
2023/04/22 05:07:43;;;;;;;92.93;65.97;;;;;;;-141.97;100.00;47736.28;5050294;28;20542;-80
2023/04/22 05:10:20;;;;;;;28.93;19.13;;;;;;;-141.97;100.00;47757.41;5051670;28;20165;-81
2023/04/22 05:13:06;;;;;;;26.70;15.50;;;;;;;-141.97;100.00;47811.25;5051275;28;20667;-81
2023/04/22 05:15:31;;;;;;;23.27;14.90;;;;;;;-141.97;100.00;47793.94;5050648;28;20200;-80
2023/04/22 05:17:56;;;;;;;23.20;12.90;;;;;;;-141.97;97.68;47780.47;5049471;28;20169;-81
2023/04/22 05:20:22;;;;;;;21.33;12.87;;;;;;;-141.97;95.02;47688.22;5051270;28;20621;-80
2023/04/22 05:22:56;;;;;;;21.17;11.90;;;;;;;-141.97;88.21;47780.47;5050097;28;20242;-81
2023/04/22 05:25:32;;;;;;;;;;;;;;;;;;;;;
2023/04/22 05:27:57;;;;;;;18.97;12.70;;;;;;;-141.97;81.54;47761.25;5051259;28;20187;-81
2023/04/22 05:30:23;;;;;;;22.73;13.10;;;;;;;-141.97;79.68;47622.88;5050180;28;20260;-82
2023/04/22 05:32:48;;;;;;;20.87;12.07;;;;;;;-141.97;79.88;47845.84;5050977;28;20187;-81
2023/04/22 05:35:14;;;;;;;19.20;11.53;;;;;;;-141.97;79.60;47830.47;5033472;28;20170;-81
2023/04/22 05:37:39;;;;;;;17.27;11.40;;;;;;;-141.97;79.52;47842.00;5029860;28;20225;-81
2023/04/22 05:40:14;;;;;;;29.23;13.33;;;;;;;-141.97;79.31;47507.53;5031247;28;20248;-81
2023/04/22 05:42:39;;;;;;;335.53;197.03;;;;;;;-141.97;77.81;47574.81;5031040;28;20244;-82
2023/04/22 05:45:14;;;;;;;23.00;14.83;;;;;;;-141.97;79.72;47843.91;5031413;28;20170;-81
2023/04/22 05:47:40;;;;;;;38.50;26.53;;;;;;;-141.97;79.94;47843.91;5031423;28;20162;-81
2023/04/22 05:50:06;;;;;;;39.60;24.80;;;;;;;-141.97;79.40;47640.16;5031275;28;20491;-81
2023/04/22 05:52:49;;;;;;;30.40;21.43;;;;;;;-141.97;77.45;47630.56;5031338;28;20174;-81
2023/04/22 05:55:15;;;;;;;24.53;17.50;;;;;;;-141.97;76.63;47761.25;5030280;28;20611;-82
2023/04/22 05:57:40;;;;;;;15.97;10.53;;;;;;;-141.97;75.94;47722.81;5031188;28;20158;-82
2023/04/22 06:00:08;;;;;;;17.00;10.27;;;;;;;-141.97;74.52;47743.97;5030379;28;20193;-81
2023/04/22 06:02:33;;;;;;;16.70;11.57;;;;;;;-141.97;74.04;47659.38;5030618;28;20186;-80
2023/04/22 06:04:59;;;;;;;18.70;11.17;;;;;;;-141.97;72.75;47868.91;5034575;28;20182;-80
2023/04/22 06:07:24;;;;;;;18.00;11.97;;;;;;;-141.97;72.32;47815.09;5032833;28;20197;-82
2023/04/22 06:09:50;;;;;;;17.07;12.03;;;;;;;-141.97;72.90;47703.59;5033454;28;20426;-81
2023/04/22 06:12:15;;;;;;;24.67;14.57;;;;;;;-141.97;73.39;47707.44;5034489;28;20228;-81
2023/04/22 06:14:40;;;;;;;22.13;14.27;;;;;;;-141.97;73.90;47817.00;5034520;28;20177;-81
2023/04/22 06:17:07;;;;;;;22.83;14.07;;;;;;;-141.97;75.85;47718.97;5049879;28;20177;-81
2023/04/22 06:19:34;;;;;;;18.97;13.27;;;;;;;-141.97;75.13;47724.75;5032618;28;20186;-81
2023/04/22 06:22:00;;;;;;;20.57;12.80;;;;;;;-141.97;74.63;47684.38;5033383;28;20225;-82
2023/04/22 06:24:25;;;;;;;20.70;13.43;;;;;;;-141.97;76.05;47730.50;5034148;28;20659;-82
2023/04/22 06:26:51;;;;;;;30.03;17.93;;;;;;;-141.97;76.21;47726.66;5033889;28;20178;-82
2023/04/22 06:29:16;;;;;;;23.83;15.67;;;;;;;-141.97;76.79;47770.88;5034861;28;20166;-82
2023/04/22 06:31:41;;;;;;;18.80;12.10;;;;;;;-141.97;76.25;47711.28;5034184;28;20165;-82
2023/04/22 06:34:07;;;;;;;19.93;13.50;;;;;;;-141.97;76.34;47705.53;5033916;28;20542;-83
2023/04/22 06:36:36;;;;;;;21.47;13.13;;;;;;;-141.97;74.06;47730.50;5040129;28;20221;-83
2023/04/22 06:39:04;;;;;;;21.90;13.30;;;;;;;-141.97;74.46;47676.69;5053858;28;20471;-81
2023/04/22 06:41:29;;;;;;;20.73;14.43;;;;;;;-141.97;74.10;47724.75;5054694;28;20168;-81
2023/04/22 06:43:55;;;;;;;18.27;12.50;;;;;;;-141.97;71.28;47720.91;5053976;28;20170;-82
2023/04/22 06:46:20;;;;;;;14.67;10.67;;;;;;;-141.97;69.58;47684.38;5053805;28;20600;-80
2023/04/22 06:48:46;;;;;;;14.73;9.70;;;;;;;-141.97;68.06;47778.56;5053435;28;20222;-80
2023/04/22 06:51:11;;;;;;;30.00;19.67;;;;;;;-141.97;68.25;47730.50;5053776;28;20162;-81
2023/04/22 06:53:37;;;;;;;19.07;13.03;;;;;;;-141.97;67.77;47674.78;5054224;28;20517;-82
2023/04/22 06:56:03;;;;;;;18.97;11.47;;;;;;;-141.97;67.82;47659.38;5061972;28;20169;-82
2023/04/22 06:58:29;;;;;;;21.33;14.57;;;;;;;-141.97;68.82;47553.69;5071582;28;20197;-82
2023/04/22 07:00:55;;;;;;;21.63;13.37;;;;;;;-141.97;68.13;47692.06;5069483;28;20255;-83
2023/04/22 07:03:20;;;;;;;17.40;12.10;;;;;;;-141.97;68.10;47692.06;5056462;28;20592;-81
2023/04/22 07:05:47;;;;;;;17.40;11.57;;;;;;;-141.97;69.17;47697.84;5054526;28;20347;-82
2023/04/22 07:08:13;;;;;;;18.67;12.03;;;;;;;-141.97;67.52;47713.22;5053713;28;20149;-82
2023/04/22 07:10:38;;;;;;;18.70;11.93;;;;;;;-141.97;68.09;47676.69;5054124;28;20239;-82
2023/04/22 07:13:04;;;;;;;15.87;10.37;;;;;;;-141.97;66.30;47845.84;5053964;28;20169;-82
2023/04/22 07:15:29;;;;;;;27.17;18.47;;;;;;;-141.97;65.39;47676.69;5052668;28;20196;-81
2023/04/22 07:17:55;;;;;;;29.97;19.90;;;;;;;-141.97;65.82;47642.09;5053203;28;20247;-82
2023/04/22 07:20:20;;;;;;;19.40;12.07;;;;;;;-141.97;66.09;47707.44;5053365;28;20666;-82
2023/04/22 07:22:46;;;;;;;15.63;11.70;;;;;;;-141.97;66.36;47692.06;5053154;28;20162;-82
2023/04/22 07:25:11;;;;;;;18.13;12.43;;;;;;;-141.97;65.99;47676.69;5035312;28;20196;-82
2023/04/22 07:27:37;;;;;;;23.20;15.07;;;;;;;-141.97;64.78;47644.00;5035206;28;20173;-82
2023/04/22 07:30:03;;;;;;;19.57;12.83;;;;;;;-141.97;64.86;47661.31;5052800;28;20153;-82
2023/04/22 07:32:29;;;;;;;16.37;10.60;;;;;;;-141.97;64.79;47699.75;5053243;28;20640;-81
2023/04/22 07:34:54;;;;;;;16.27;11.17;;;;;;;-141.97;66.54;47680.53;5052647;28;20177;-81
2023/04/22 07:37:21;;;;;;;17.53;11.23;;;;;;;-141.97;66.37;47653.63;5035297;28;20235;-82
2023/04/22 07:39:46;;;;;;;15.13;10.20;;;;;;;-141.97;64.07;47686.31;5040744;28;20235;-81
2023/04/22 07:42:12;;;;;;;15.43;10.33;;;;;;;-141.97;63.53;47653.63;5062032;28;20165;-82
2023/04/22 07:44:37;;;;;;;14.63;10.63;;;;;;;-141.97;63.21;47697.84;5054369;28;20219;-81
2023/04/22 07:47:03;;;;;;;18.43;11.63;;;;;;;-141.97;62.67;47647.84;5053551;28;20230;-82
2023/04/22 07:49:28;;;;;;;17.40;10.93;;;;;;;-141.97;61.14;47697.84;5051970;28;20256;-82
2023/04/22 07:51:53;;;;;;;17.87;11.40;;;;;;;-141.97;63.38;47695.91;5052686;28;20222;-82
2023/04/22 07:54:19;;;;;;;23.17;15.93;;;;;;;-141.97;62.54;47661.31;5034870;28;20637;-81
2023/04/22 07:56:44;;;;;;;16.13;11.20;;;;;;;-141.97;60.24;47676.69;5051293;28;20184;-82
2023/04/22 07:59:10;;;;;;;17.00;12.40;;;;;;;-141.97;60.06;47657.47;5052261;28;20205;-82
2023/04/22 08:01:35;;;;;;;15.37;11.73;;;;;;;-141.97;59.37;47661.31;5052921;28;20157;-82
2023/04/22 08:04:01;;;;;;;17.93;10.17;;;;;;;-141.97;58.67;47684.38;5052555;28;20165;-82
2023/04/22 08:06:27;;;;;;;15.93;10.10;;;;;;;-141.97;58.62;47678.63;5052246;28;20598;-81
2023/04/22 08:08:52;;;;;;;13.03;9.80;;;;;;;-141.97;57.51;47597.88;5052033;28;20161;-82
2023/04/22 08:11:18;;;;;;;16.93;10.40;;;;;;;-141.97;57.61;47640.16;5052586;28;20545;-82
2023/04/22 08:13:43;;;;;;;16.00;10.67;;;;;;;-141.97;57.72;47619.03;5051203;28;20169;-82
2023/04/22 08:16:09;;;;;;;15.23;11.33;;;;;;;-141.97;56.40;47632.47;5052127;28;20678;-82
2023/04/22 08:18:34;;;;;;;16.53;10.27;;;;;;;-141.97;57.26;47657.47;5033789;28;20197;-81
2023/04/22 08:21:00;;;;;;;15.40;10.23;;;;;;;-141.97;58.33;47563.28;5051878;28;20246;-82
2023/04/22 08:23:26;;;;;;;13.07;10.10;;;;;;;-141.97;57.33;47563.28;5052438;28;20170;-82
2023/04/22 08:25:51;;;;;;;17.03;12.00;;;;;;;-141.97;55.70;47642.09;5051905;28;20476;-82
2023/04/22 08:28:17;;;;;;;21.57;12.13;;;;;;;-141.97;54.57;47634.41;5052458;28;20216;-82
2023/04/22 08:30:42;;;;;;;15.70;11.90;;;;;;;-141.97;53.01;47607.50;5033633;28;20602;-81
2023/04/22 08:33:10;;;;;;;15.63;10.77;;;;;;;-141.97;52.94;47632.47;5052007;28;20177;-82
2023/04/22 08:35:36;;;;;;;13.90;10.20;;;;;;;-141.97;53.75;47630.56;5034690;28;20177;-82
2023/04/22 08:38:03;;;;;;;17.17;10.03;;;;;;;-141.97;53.69;47644.00;5051578;28;20221;-82
2023/04/22 08:40:28;;;;;;;14.00;10.70;;;;;;;-141.97;53.04;47634.41;5033512;28;20260;-82
2023/04/22 08:42:55;;;;;;;14.97;10.10;;;;;;;-141.97;52.26;47669.00;5051174;28;20552;-82
2023/04/22 08:45:21;;;;;;;12.10;9.57;;;;;;;-141.97;51.40;47663.22;5051255;28;20173;-82
2023/04/22 08:47:51;;;;;;;15.83;10.10;;;;;;;-141.97;51.02;47578.66;5051674;28;20176;-81
2023/04/22 08:50:21;;;;;;;13.50;10.23;;;;;;;-141.97;50.11;47647.84;5052005;28;20158;-83
2023/04/22 08:52:46;;;;;;;16.43;10.50;;;;;;;-141.97;50.39;47594.03;5051006;28;20177;-81
2023/04/22 08:55:13;;;;;;;16.30;11.23;;;;;;;-141.97;50.54;47680.53;5051286;28;20294;-82
2023/04/22 08:57:41;;;;;;;14.83;10.53;;;;;;;-141.97;50.56;47763.19;5051445;28;20164;-83
2023/04/22 09:00:08;;;;;;;14.43;10.67;;;;;;;-141.97;50.02;47515.22;5033563;28;20208;-82
2023/04/22 09:02:36;;;;;;;15.60;10.50;;;;;;;-141.97;49.80;47572.91;5051745;28;20158;-82
2023/04/22 09:05:05;;;;;;;15.33;10.33;;;;;;;-141.97;49.67;47622.88;5051318;28;20181;-81
2023/04/22 09:07:34;;;;;;;14.97;10.27;;;;;;;-141.97;48.82;47659.38;5033260;28;20201;-82
2023/04/22 09:09:59;;;;;;;12.23;9.30;;;;;;;-141.97;47.63;47667.06;5051040;28;20244;-83
2023/04/22 09:12:25;;;;;;;13.13;8.93;;;;;;;-141.97;46.79;47647.84;5051006;28;20633;-82
2023/04/22 09:14:51;;;;;;;15.67;9.47;;;;;;;-141.97;47.59;47649.78;5050603;28;20169;-81
2023/04/22 09:17:27;;;;;;;14.37;9.23;;;;;;;-141.97;48.03;47653.63;5051065;28;20692;-82
2023/04/22 09:20:00;;;;;;;11.63;9.47;;;;;;;-141.97;47.48;47634.41;5032599;28;20719;-82
2023/04/22 09:22:39;;;;;;;11.87;9.10;;;;;;;-141.97;47.74;47613.25;5050591;28;20251;-82
2023/04/22 09:25:13;;;;;;;17.00;10.63;;;;;;;-141.97;47.91;47595.97;5051359;28;20161;-82
2023/04/22 09:27:39;;;;;;;10.87;9.10;;;;;;;-141.97;46.71;47613.25;5032772;28;20173;-82
2023/04/22 09:30:08;;;;;;;17.00;9.37;;;;;;;-141.97;46.91;47730.50;5050497;28;20177;-82
2023/04/22 09:32:33;;;;;;;13.00;9.27;;;;;;;-141.97;47.48;47663.22;5032941;28;20271;-82
2023/04/22 09:35:00;;;;;;;13.93;9.27;;;;;;;-141.97;46.51;47634.41;5016277;28;20268;-81
2023/04/22 09:37:26;;;;;;;15.20;9.40;;;;;;;-141.97;46.56;47592.13;5051193;28;20224;-81
2023/04/22 09:39:53;;;;;;;13.03;9.80;;;;;;;-141.97;46.18;47615.19;5037355;28;20204;-82
2023/04/22 09:42:20;;;;;;;15.83;10.33;;;;;;;-141.97;45.61;47597.88;5061608;28;20176;-82
2023/04/22 09:44:47;;;;;;;14.13;10.50;;;;;;;-141.97;46.03;47601.72;5053120;28;20169;-81
2023/04/22 09:47:12;;;;;;;15.40;10.63;;;;;;;-141.97;47.73;47786.25;5055211;28;20245;-81
2023/04/22 09:49:39;;;;;;;12.13;9.30;;;;;;;-141.97;47.02;47590.19;5074822;28;20161;-79
2023/04/22 09:52:05;;;;;;;14.00;9.73;;;;;;;-141.97;47.06;47588.28;5059913;28;20200;-81
2023/04/22 09:54:31;;;;;;;14.27;9.90;;;;;;;-141.97;46.82;47595.97;5052384;28;20189;-82
2023/04/22 09:56:56;;;;;;;12.77;10.00;;;;;;;-141.97;47.23;47569.06;5033769;28;20234;-81
2023/04/22 09:59:23;;;;;;;14.83;9.73;;;;;;;-141.97;47.65;47634.41;5050141;28;20284;-81
2023/04/22 10:01:54;;;;;;;12.23;8.90;;;;;;;-141.97;47.49;47609.41;5051154;28;20165;-81
2023/04/22 10:04:24;;;;;;;10.33;8.70;;;;;;;-141.97;46.87;47549.84;5051148;28;20170;-81
2023/04/22 10:06:51;;;;;;;13.00;8.23;;;;;;;-141.97;46.56;47657.47;5051456;28;20194;-81
2023/04/22 10:09:22;;;;;;;13.00;8.20;;;;;;;-141.97;46.65;47603.66;5053052;28;20204;-80
2023/04/22 10:11:51;;;;;;;10.03;7.60;;;;;;;-141.97;45.46;47599.81;5034517;28;20188;-80
2023/04/22 10:14:16;;;;;;;10.90;7.80;;;;;;;-141.97;45.03;47619.03;5051623;28;20201;-82
2023/04/22 10:16:45;;;;;;;8.63;7.00;;;;;;;-141.97;44.96;47651.69;5053135;28;20207;-81
2023/04/22 10:19:16;;;;;;;9.03;6.67;;;;;;;-141.97;43.75;47551.75;5054860;28;20196;-81
2023/04/22 10:21:45;;;;;;;8.83;6.50;;;;;;;-141.97;43.41;47557.53;5040410;28;20657;-81
2023/04/22 10:24:19;;;;;;;10.70;6.80;;;;;;;-141.97;45.29;47642.09;5041674;28;20173;-81
2023/04/22 10:26:58;;;;;;;15.80;8.90;;;;;;;-141.97;47.14;47607.50;5023434;28;20181;-81
2023/04/22 10:29:26;;;;;;;13.93;7.67;;;;;;;-141.97;46.45;47546.00;5052085;28;20193;-81
2023/04/22 10:32:22;;;;;;;7.60;6.10;;;;;;;-141.97;44.94;47572.91;5051874;28;20627;-80
2023/04/22 10:34:48;;;;;;;9.37;6.87;;;;;;;-141.97;46.06;47638.25;5033850;28;20170;-81
2023/04/22 10:37:17;;;;;;;7.17;6.20;;;;;;;-141.97;46.62;47603.66;5050281;28;20227;-83
2023/04/22 10:40:07;;;;;;;10.00;7.60;;;;;;;-141.97;47.32;47653.63;5052845;28;20677;-79
2023/04/22 10:42:34;;;;;;;9.73;6.53;;;;;;;-141.97;46.43;47549.84;5051398;28;20169;-82
2023/04/22 10:45:02;;;;;;;8.53;6.23;;;;;;;-141.97;46.37;47638.25;5051005;28;20204;-81
2023/04/22 10:47:31;;;;;;;10.60;7.27;;;;;;;-141.97;45.12;47597.88;5050668;28;20157;-82
2023/04/22 10:50:16;;;;;;;8.40;6.13;;;;;;;-141.97;45.04;47655.53;5051543;28;20154;-82
2023/04/22 10:52:47;;;;;;;9.47;6.73;;;;;;;-141.97;44.07;47609.41;5036679;28;20208;-81
2023/04/22 10:55:12;;;;;;;8.80;6.40;;;;;;;-141.97;44.56;47549.84;5054737;28;20517;-81
2023/04/22 10:57:40;;;;;;;7.40;6.03;;;;;;;-141.97;43.25;47551.75;5053711;28;20252;-81
2023/04/22 11:00:26;;;;;;;11.00;6.70;;;;;;;-141.97;44.10;47538.28;5053219;28;20201;-80